עמוד ראשי
METAR-TAF:

METAR-TAF

שדות תעופה :

טגו, קוריאה הדרומית

קו רוחב: 35-54N, קו אורך: 128-39E, גובה: 35מטר

תצפית מזג אוויר נוכחית

הדו"ח נערך לפני 1 שעות ו 6דקות, בשעה 14:00 UTC
רוח 4קשר מכיוון דרום-מזרח
טמפרטורת 28 צלסיוס
לחות 74%
לחץ 1004 hPa
ראות 10 קילומטר או יותר
ללא עננים שבסיסם נמוך מ 5000 רגל או קומולונימבוס

METAR: RKTN 181400Z 14004KT CAVOK 28/23 Q1004

זמן: 00:06 (15:06 UTC)

תחזית

הדו"ח נערך לפני 4 שעות ו 6דקות, בשעה 11:00 UTC
תחזית בתוקף מ 18 ב 12 UTC עד 19 ב 18 UTC
רוח 10קשר מכיוון מערב/דרום-מערב
ראות 10 קילומטר או יותר
עננים פזורים בגובה 3000רגל
עננים בינוניים בגובה 20000רגל
יעשה מ
18 ב 13 UTC עד 18 ב 14 UTC
עננים בינוניים בגובה 3000רגל

TAF: RKTN 181100Z 1812/1918 24010KT 9999 SCT030 BKN200 TN25/1821Z TX31/1906Z BECMG 1813/1814 BKN030

תצפיות ותחזיות מזג אוויר לגבי יותר מ- 4,000 שדות תעופה ברחבי העולם. דוחות METAR ו- TAF.

התחנות הזמינות מסומנות בנקודות צהובות ואדומות על גבי המפה.

העבר את העכבר לנקודה הצבעונית על מנת לראות את שם התחנה.

לאחר מכן, לחץ כדי לראות את תוכן ואת תחזיות מזג האוויר.

כדי לשנות את המפה: לחץ על הכפתורים הירוקים עם הפלוס השחור כדי להתקרב; על הכפתור הירוק עם המקף כדי להתרחק; או בחיצים הירוקים למפות סמוכות.


METAR-TAF: